createdAt,value
2022-09-10T00:01:19.203Z,2.70
2022-09-10T00:03:48.686Z,1.63
2022-09-10T00:06:18.544Z,1.17
2022-09-10T00:08:47.491Z,1.00
2022-09-10T00:11:15.908Z,1.23
2022-09-10T00:13:44.107Z,1.20
2022-09-10T00:16:15.160Z,1.10
2022-09-10T00:18:44.558Z,1.13
2022-09-10T00:21:14.559Z,1.00
2022-09-10T00:23:45.468Z,1.13
2022-09-10T00:26:16.732Z,0.60
2022-09-10T00:28:44.792Z,0.70
2022-09-10T00:31:13.237Z,1.33
2022-09-10T00:33:41.709Z,0.57
2022-09-10T00:36:17.368Z,0.80
2022-09-10T00:38:45.284Z,0.80
2022-09-10T00:41:14.226Z,0.60
2022-09-10T00:43:54.366Z,0.70
2022-09-10T00:46:28.449Z,0.80
2022-09-10T00:48:59.029Z,0.60
2022-09-10T00:51:31.070Z,0.63
2022-09-10T00:53:59.972Z,0.80
2022-09-10T00:56:28.470Z,0.63
2022-09-10T00:58:57.109Z,0.60
2022-09-10T01:01:25.025Z,0.57
2022-09-10T01:03:55.281Z,0.90
2022-09-10T01:06:23.941Z,1.17
2022-09-10T01:08:53.438Z,0.80
2022-09-10T01:11:44.951Z,0.60
2022-09-10T01:14:41.750Z,0.83
2022-09-10T01:17:18.257Z,1.00
2022-09-10T01:20:10.938Z,1.10
2022-09-10T01:22:59.601Z,1.27
2022-09-10T01:25:41.826Z,1.40
2022-09-10T01:28:18.707Z,1.63
2022-09-10T01:30:51.521Z,1.17
2022-09-10T01:33:26.045Z,1.30
2022-09-10T01:35:58.014Z,1.47
2022-09-10T01:38:31.532Z,1.37
2022-09-10T01:41:00.084Z,1.10
2022-09-10T01:43:29.931Z,1.10
2022-09-10T01:46:13.237Z,1.03
2022-09-10T01:49:10.333Z,1.00
2022-09-10T01:51:49.919Z,0.90
2022-09-10T01:54:28.527Z,0.90
2022-09-10T01:57:06.437Z,0.90
2022-09-10T01:59:43.910Z,0.90
2022-09-10T02:02:17.915Z,0.87
2022-09-10T02:04:47.438Z,1.10
2022-09-10T02:07:17.360Z,0.80
2022-09-10T02:09:45.447Z,0.80
2022-09-10T02:12:21.579Z,1.00
2022-09-10T02:14:51.441Z,0.97
2022-09-10T02:17:20.130Z,1.13
2022-09-10T02:19:51.470Z,1.03
2022-09-10T02:22:23.196Z,0.87
2022-09-10T02:24:51.459Z,1.00
2022-09-10T02:27:19.891Z,1.27
2022-09-10T02:29:49.373Z,1.20
2022-09-10T02:32:18.582Z,1.07
2022-09-10T02:34:46.401Z,1.30
2022-09-10T02:37:14.227Z,1.20
2022-09-10T02:39:42.377Z,1.40
2022-09-10T02:42:10.262Z,1.43
2022-09-10T02:44:38.077Z,1.47
2022-09-10T02:47:06.454Z,1.23
2022-09-10T02:49:35.651Z,1.40
2022-09-10T02:52:04.540Z,1.47
2022-09-10T02:54:32.518Z,1.57
2022-09-10T02:57:00.916Z,1.50
2022-09-10T02:59:28.968Z,1.63
2022-09-10T03:01:56.980Z,1.40
2022-09-10T03:04:24.809Z,1.50
2022-09-10T03:06:54.867Z,1.30
2022-09-10T03:09:23.083Z,1.10
2022-09-10T03:11:51.739Z,1.23
2022-09-10T03:14:22.165Z,1.47
2022-09-10T03:16:50.628Z,1.40
2022-09-10T03:19:18.502Z,1.40
2022-09-10T03:21:47.398Z,1.90
2022-09-10T03:24:17.332Z,1.20
2022-09-10T03:26:45.137Z,1.20
2022-09-10T03:29:13.987Z,1.33
2022-09-10T03:31:42.591Z,1.10
2022-09-10T03:34:12.468Z,1.00
2022-09-10T03:36:40.281Z,1.40
2022-09-10T03:39:08.130Z,1.60
2022-09-10T03:41:37.371Z,1.37
2022-09-10T03:44:05.184Z,1.53
2022-09-10T03:46:33.447Z,1.23
2022-09-10T03:49:02.254Z,1.30
2022-09-10T03:51:31.036Z,1.17
2022-09-10T03:53:59.837Z,1.70
2022-09-10T03:56:28.286Z,1.23
2022-09-10T03:58:57.836Z,1.50
2022-09-10T04:01:25.751Z,2.00
2022-09-10T04:03:56.405Z,2.33
2022-09-10T04:06:24.358Z,2.07
2022-09-10T04:08:53.020Z,1.90
2022-09-10T04:11:20.909Z,2.07
2022-09-10T04:13:48.994Z,2.30
2022-09-10T04:16:18.761Z,2.47
2022-09-10T04:18:46.822Z,2.17
2022-09-10T04:21:14.750Z,2.07
2022-09-10T04:23:42.881Z,2.20
2022-09-10T04:26:14.744Z,2.13
2022-09-10T04:28:42.918Z,2.30
2022-09-10T04:31:11.298Z,1.70
2022-09-10T04:33:40.629Z,1.93
2022-09-10T04:36:08.907Z,1.73
2022-09-10T04:38:40.452Z,1.57
2022-09-10T04:41:09.340Z,1.90
2022-09-10T04:43:38.109Z,1.50
2022-09-10T04:46:06.091Z,1.50
2022-09-10T04:48:34.265Z,1.80
2022-09-10T04:51:16.138Z,1.50
2022-09-10T04:53:45.361Z,1.80
2022-09-10T04:56:13.358Z,1.67
2022-09-10T04:58:41.905Z,1.47
2022-09-10T05:01:10.174Z,1.53
2022-09-10T05:03:38.172Z,1.70
2022-09-10T05:06:07.749Z,1.50
2022-09-10T05:08:36.558Z,1.70
2022-09-10T05:11:05.208Z,1.70
2022-09-10T05:13:33.026Z,1.30
2022-09-10T05:16:01.546Z,1.77
2022-09-10T05:18:29.383Z,1.57
2022-09-10T05:20:57.273Z,1.77
2022-09-10T05:23:27.173Z,1.30
2022-09-10T05:25:55.017Z,1.87
2022-09-10T05:28:22.903Z,1.50
2022-09-10T05:30:51.909Z,1.53
2022-09-10T05:33:19.970Z,1.60
2022-09-10T05:35:51.487Z,1.70
2022-09-10T05:38:19.524Z,1.83
2022-09-10T05:40:48.913Z,1.20
2022-09-10T05:43:16.766Z,1.93
2022-09-10T05:45:44.656Z,1.90
2022-09-10T05:48:13.199Z,1.77
2022-09-10T05:50:41.040Z,1.50
2022-09-10T05:53:09.966Z,1.53
2022-09-10T05:55:37.822Z,1.87
2022-09-10T05:58:07.067Z,1.53
2022-09-10T06:00:36.316Z,1.60
2022-09-10T06:03:05.332Z,1.70
2022-09-10T06:05:33.423Z,1.67
2022-09-10T06:08:04.341Z,1.40
2022-09-10T06:10:35.839Z,1.57
2022-09-10T06:13:03.679Z,1.87
2022-09-10T06:15:33.044Z,1.77
2022-09-10T06:18:01.775Z,1.47
2022-09-10T06:20:29.639Z,1.80
2022-09-10T06:22:57.455Z,1.87
2022-09-10T06:25:25.366Z,1.97
2022-09-10T06:27:53.177Z,1.90
2022-09-10T06:30:21.619Z,1.80
2022-09-10T06:32:50.840Z,1.40
2022-09-10T06:35:18.866Z,1.63
2022-09-10T06:37:47.293Z,1.67
2022-09-10T06:40:15.501Z,1.97
2022-09-10T06:42:43.377Z,1.80
2022-09-10T06:45:11.619Z,1.80
2022-09-10T06:48:25.443Z,1.60
2022-09-10T06:50:28.589Z,1.33
2022-09-10T06:52:57.059Z,1.53
2022-09-10T06:55:24.874Z,1.50
2022-09-10T06:57:52.713Z,1.63
2022-09-10T07:00:21.060Z,1.47
2022-09-10T07:02:50.475Z,1.43
2022-09-10T07:05:18.319Z,2.07
2022-09-10T07:07:47.807Z,1.60
2022-09-10T07:10:15.795Z,1.37
2022-09-10T07:12:44.674Z,1.60
2022-09-10T07:15:12.528Z,1.43
2022-09-10T07:17:40.365Z,1.90
2022-09-10T07:20:09.070Z,1.70
2022-09-10T07:22:37.722Z,2.00
2022-09-10T07:25:10.656Z,1.70
2022-09-10T07:27:38.442Z,1.50
2022-09-10T07:30:07.420Z,1.73
2022-09-10T07:32:35.626Z,2.00
2022-09-10T07:35:03.430Z,1.73
2022-09-10T07:37:31.352Z,2.00
2022-09-10T07:39:59.756Z,1.57
2022-09-10T07:42:29.400Z,1.90
2022-09-10T07:44:57.359Z,1.87
2022-09-10T07:47:25.224Z,1.97
2022-09-10T07:49:53.244Z,1.90
2022-09-10T07:52:21.082Z,1.90
2022-09-10T07:54:48.924Z,1.97
2022-09-10T07:57:16.824Z,1.67
2022-09-10T07:59:46.026Z,1.70
2022-09-10T08:02:15.978Z,1.80
2022-09-10T08:04:43.926Z,1.53
2022-09-10T08:07:11.837Z,1.87
2022-09-10T08:09:39.784Z,1.87
2022-09-10T08:12:07.983Z,1.73
2022-09-10T08:14:37.988Z,1.87
2022-09-10T08:17:07.698Z,2.13
2022-09-10T08:19:36.594Z,2.03
2022-09-10T08:22:04.457Z,2.03
2022-09-10T08:24:32.304Z,2.10
2022-09-10T08:27:00.184Z,1.63
2022-09-10T08:29:28.598Z,2.00
2022-09-10T08:31:56.467Z,2.03
2022-09-10T08:34:26.210Z,1.80
2022-09-10T08:36:55.318Z,1.73
2022-09-10T08:39:24.044Z,2.00
2022-09-10T08:41:56.407Z,2.60
2022-09-10T08:44:32.993Z,1.97
2022-09-10T08:47:06.167Z,2.20
2022-09-10T08:49:42.577Z,2.80
2022-09-10T08:52:17.029Z,2.10
2022-09-10T08:54:52.164Z,2.37
2022-09-10T08:57:25.530Z,2.33
2022-09-10T08:59:56.485Z,2.50
2022-09-10T09:02:48.451Z,2.00
2022-09-10T09:05:20.058Z,2.27
2022-09-10T09:07:49.356Z,2.33
2022-09-10T09:10:31.511Z,2.70
2022-09-10T09:13:29.788Z,2.33
2022-09-10T09:16:09.088Z,1.97
2022-09-10T09:18:46.640Z,2.60
2022-09-10T09:21:18.174Z,2.67
2022-09-10T09:24:12.351Z,2.30
2022-09-10T09:26:46.010Z,2.60
2022-09-10T09:29:18.932Z,2.73
2022-09-10T09:31:50.945Z,2.60
2022-09-10T09:34:23.348Z,2.73
2022-09-10T09:36:55.886Z,2.43
2022-09-10T09:39:29.304Z,3.60
2022-09-10T09:42:05.688Z,2.67
2022-09-10T09:44:40.375Z,2.70
2022-09-10T09:47:09.654Z,3.10
2022-09-10T09:49:37.516Z,3.10
2022-09-10T09:52:18.372Z,3.10
2022-09-10T09:55:13.735Z,3.07
2022-09-10T09:57:38.664Z,2.77
2022-09-10T10:00:36.511Z,3.07
2022-09-10T10:03:13.335Z,3.50
2022-09-10T10:05:42.325Z,3.83
2022-09-10T10:08:30.056Z,3.30
2022-09-10T10:10:58.439Z,3.67
2022-09-10T10:13:26.337Z,3.63
2022-09-10T10:15:55.593Z,4.00
2022-09-10T10:18:32.580Z,3.80
2022-09-10T10:21:18.136Z,4.03
2022-09-10T10:23:46.031Z,3.47
2022-09-10T10:26:29.052Z,3.50
2022-09-10T10:29:00.889Z,3.57
2022-09-10T10:31:38.649Z,3.50
2022-09-10T10:34:32.395Z,3.80
2022-09-10T10:37:08.356Z,4.40
2022-09-10T10:39:51.452Z,4.80
2022-09-10T10:42:27.305Z,4.50
2022-09-10T10:45:12.442Z,4.03
2022-09-10T10:47:51.299Z,4.33
2022-09-10T10:50:31.075Z,4.40
2022-09-10T10:53:23.864Z,4.50
2022-09-10T10:56:02.999Z,4.50
2022-09-10T10:58:54.316Z,4.30
2022-09-10T11:01:25.418Z,3.93
2022-09-10T11:04:01.525Z,3.90
2022-09-10T11:06:38.259Z,4.53
2022-09-10T11:09:09.273Z,3.97
2022-09-10T11:11:48.432Z,4.30
2022-09-10T11:14:23.263Z,3.97
2022-09-10T11:16:58.532Z,4.40
2022-09-10T11:19:37.178Z,4.57
2022-09-10T11:22:12.318Z,4.10
2022-09-10T11:24:46.607Z,4.50
2022-09-10T11:27:17.283Z,4.30
2022-09-10T11:29:52.979Z,4.10
2022-09-10T11:32:28.455Z,4.30
2022-09-10T11:35:04.686Z,4.70
2022-09-10T11:37:52.949Z,4.30
2022-09-10T11:40:28.306Z,4.43
2022-09-10T11:43:01.748Z,4.40
2022-09-10T11:45:40.015Z,6.13
2022-09-10T11:48:17.334Z,14.97
2022-09-10T11:50:53.703Z,5.33
2022-09-10T11:53:24.713Z,5.50
2022-09-10T11:56:28.931Z,5.43
2022-09-10T11:59:14.154Z,5.03
2022-09-10T12:02:02.476Z,5.50
2022-09-10T12:04:51.055Z,5.50
2022-09-10T12:07:33.714Z,6.00
2022-09-10T12:10:14.768Z,5.60
2022-09-10T12:12:44.923Z,5.57
2022-09-10T12:15:19.798Z,5.23
2022-09-10T12:17:51.898Z,22.97
2022-09-10T12:20:26.961Z,83.53
2022-09-10T12:22:57.337Z,6.17
2022-09-10T12:25:33.586Z,6.40
2022-09-10T12:28:05.142Z,5.83
2022-09-10T12:31:02.603Z,5.67
2022-09-10T12:33:59.314Z,5.60
2022-09-10T12:37:17.035Z,5.90
2022-09-10T12:39:46.637Z,5.83
2022-09-10T12:42:32.606Z,6.67
2022-09-10T12:45:00.878Z,5.60
2022-09-10T12:47:55.931Z,6.53
2022-09-10T12:50:45.906Z,5.90
2022-09-10T12:53:38.096Z,6.90
2022-09-10T12:56:38.023Z,5.90
2022-09-10T12:59:36.086Z,6.50
2022-09-10T13:02:05.894Z,6.63
2022-09-10T13:04:36.507Z,5.63
2022-09-10T13:07:20.923Z,6.00
2022-09-10T13:09:59.630Z,6.27
2022-09-10T13:12:31.899Z,6.40
2022-09-10T13:15:02.498Z,6.07
2022-09-10T13:18:01.240Z,6.37
2022-09-10T13:20:34.539Z,5.23
2022-09-10T13:23:03.915Z,34.20
2022-09-10T13:25:41.400Z,19.00
2022-09-10T13:28:42.838Z,6.10
2022-09-10T13:31:19.226Z,5.80
2022-09-10T13:34:15.807Z,6.43
2022-09-10T13:36:55.916Z,5.90
2022-09-10T13:39:48.808Z,6.33
2022-09-10T13:42:42.438Z,5.20
2022-09-10T13:45:22.752Z,5.63
2022-09-10T13:47:58.035Z,5.27
2022-09-10T13:50:28.723Z,5.80
2022-09-10T13:53:00.395Z,6.07
2022-09-10T13:55:30.517Z,5.23
2022-09-10T13:58:01.992Z,5.67
2022-09-10T14:00:35.537Z,6.03
2022-09-10T14:03:15.983Z,6.47
2022-09-10T14:05:48.667Z,6.27
2022-09-10T14:08:21.545Z,6.43
2022-09-10T14:10:53.310Z,5.10
2022-09-10T14:13:28.593Z,5.83
2022-09-10T14:15:59.399Z,6.47
2022-09-10T14:18:36.939Z,5.90
2022-09-10T14:21:05.599Z,6.87
2022-09-10T14:23:33.616Z,6.37
2022-09-10T14:26:17.251Z,6.33
2022-09-10T14:28:53.247Z,6.07
2022-09-10T14:31:24.355Z,6.20
2022-09-10T14:33:54.229Z,7.50
2022-09-10T14:36:23.836Z,6.07
2022-09-10T14:39:02.599Z,7.07
2022-09-10T14:41:33.076Z,7.00
2022-09-10T14:44:30.998Z,6.57
2022-09-10T14:47:01.746Z,5.77
2022-09-10T14:49:33.589Z,6.87
2022-09-10T14:52:03.401Z,7.33
2022-09-10T14:54:33.481Z,6.67
2022-09-10T14:57:04.734Z,6.70
2022-09-10T14:59:34.534Z,6.07
2022-09-10T15:02:03.533Z,5.80
2022-09-10T15:04:32.984Z,5.73
2022-09-10T15:07:02.600Z,5.80
2022-09-10T15:09:31.383Z,5.43
2022-09-10T15:12:03.257Z,5.30
2022-09-10T15:14:32.732Z,5.90
2022-09-10T15:17:00.919Z,6.13
2022-09-10T15:19:28.861Z,5.30
2022-09-10T15:21:58.296Z,4.97
2022-09-10T15:24:28.235Z,5.90
2022-09-10T15:26:57.316Z,4.93
2022-09-10T15:29:26.071Z,4.77
2022-09-10T15:31:54.433Z,5.50
2022-09-10T15:34:22.246Z,5.20
2022-09-10T15:36:50.084Z,5.13
2022-09-10T15:39:19.305Z,5.13
2022-09-10T15:41:47.197Z,4.60
2022-09-10T15:44:15.106Z,3.80
2022-09-10T15:46:45.256Z,3.93
2022-09-10T15:49:13.348Z,3.50
2022-09-10T15:51:42.136Z,3.40
2022-09-10T15:54:11.184Z,3.63
2022-09-10T15:56:40.874Z,3.30
2022-09-10T15:59:10.252Z,3.30
2022-09-10T16:01:39.289Z,3.30
2022-09-10T16:04:07.494Z,3.20
2022-09-10T16:06:40.659Z,3.30
2022-09-10T16:09:10.105Z,3.47
2022-09-10T16:11:41.215Z,3.17
2022-09-10T16:14:12.353Z,3.00
2022-09-10T16:16:40.815Z,2.50
2022-09-10T16:19:09.238Z,3.20
2022-09-10T16:21:39.161Z,3.27
2022-09-10T16:24:08.013Z,3.20
2022-09-10T16:26:37.810Z,3.00
2022-09-10T16:29:08.735Z,3.37
2022-09-10T16:31:39.020Z,3.50
2022-09-10T16:34:09.305Z,3.13
2022-09-10T16:36:38.277Z,3.13
2022-09-10T16:39:12.107Z,3.30
2022-09-10T16:41:40.994Z,3.10
2022-09-10T16:44:10.966Z,3.10
2022-09-10T16:46:39.497Z,2.70
2022-09-10T16:49:12.399Z,3.10
2022-09-10T16:51:40.732Z,2.77
2022-09-10T16:54:09.015Z,3.37
2022-09-10T16:56:39.574Z,3.50
2022-09-10T16:59:08.768Z,3.73
2022-09-10T17:01:38.278Z,4.57
2022-09-10T17:04:07.097Z,3.53
2022-09-10T17:06:36.742Z,3.00
2022-09-10T17:09:04.753Z,3.30
2022-09-10T17:11:33.521Z,3.20
2022-09-10T17:14:02.458Z,3.33
2022-09-10T17:16:32.592Z,4.03
2022-09-10T17:19:04.408Z,4.33
2022-09-10T17:21:34.470Z,3.87
2022-09-10T17:24:04.101Z,3.73
2022-09-10T17:26:32.869Z,4.50
2022-09-10T17:29:04.596Z,4.23
2022-09-10T17:31:32.450Z,4.33
2022-09-10T17:34:02.139Z,4.70
2022-09-10T17:36:30.662Z,4.60
2022-09-10T17:38:59.112Z,4.60
2022-09-10T17:41:28.601Z,4.50
2022-09-10T17:43:57.151Z,4.53
2022-09-10T17:46:25.247Z,4.80
2022-09-10T17:48:54.439Z,5.87
2022-09-10T17:51:25.314Z,5.57
2022-09-10T17:53:55.137Z,5.67
2022-09-10T17:56:24.384Z,5.23
2022-09-10T17:58:57.079Z,5.27
2022-09-10T18:01:26.696Z,6.60
2022-09-10T18:03:55.582Z,5.50
2022-09-10T18:06:25.416Z,5.83
2022-09-10T18:08:53.589Z,5.43
2022-09-10T18:11:24.154Z,6.40
2022-09-10T18:13:53.412Z,6.63
2022-09-10T18:16:23.785Z,7.07
2022-09-10T18:18:55.415Z,6.67
2022-09-10T18:21:27.021Z,6.40
2022-09-10T18:23:56.763Z,7.13
2022-09-10T18:26:27.046Z,6.83
2022-09-10T18:28:57.251Z,7.03
2022-09-10T18:31:25.955Z,7.53
2022-09-10T18:33:55.640Z,6.83
2022-09-10T18:36:27.012Z,6.47
2022-09-10T18:38:55.179Z,7.27
2022-09-10T18:41:25.737Z,9.57
2022-09-10T18:43:55.030Z,9.23
2022-09-10T18:46:23.562Z,9.47
2022-09-10T18:48:52.085Z,8.60
2022-09-10T18:51:22.037Z,10.23
2022-09-10T18:53:54.223Z,8.83
2022-09-10T18:56:24.131Z,9.20
2022-09-10T18:58:53.749Z,8.70
2022-09-10T19:01:21.888Z,8.83
2022-09-10T19:03:50.295Z,8.90
2022-09-10T19:06:20.583Z,10.23
2022-09-10T19:08:49.546Z,8.57
2022-09-10T19:11:18.995Z,8.53
2022-09-10T19:13:50.554Z,9.63
2022-09-10T19:16:19.039Z,9.90
2022-09-10T19:18:50.917Z,9.30
2022-09-10T19:21:20.071Z,9.87
2022-09-10T19:23:49.451Z,9.77
2022-09-10T19:26:19.718Z,9.30
2022-09-10T19:28:47.918Z,10.93
2022-09-10T19:31:17.832Z,10.77
2022-09-10T19:33:46.050Z,10.87
2022-09-10T19:36:16.378Z,11.10
2022-09-10T19:38:44.239Z,10.50
2022-09-10T19:41:13.665Z,11.97
2022-09-10T19:43:42.877Z,10.17
2022-09-10T19:46:11.479Z,12.30
2022-09-10T19:48:39.903Z,11.87
2022-09-10T19:51:09.818Z,8.57
2022-09-10T19:53:37.980Z,12.30
2022-09-10T19:56:07.103Z,12.07
2022-09-10T19:58:35.973Z,8.57
2022-09-10T20:01:09.846Z,11.07
2022-09-10T20:03:39.813Z,10.70
2022-09-10T20:06:11.225Z,10.57
2022-09-10T20:08:40.279Z,10.53
2022-09-10T20:11:09.581Z,11.13
2022-09-10T20:13:37.926Z,12.87
2022-09-10T20:16:08.373Z,13.03
2022-09-10T20:18:38.844Z,11.53
2022-09-10T20:21:11.910Z,13.17
2022-09-10T20:23:40.020Z,11.73
2022-09-10T20:26:13.185Z,12.87
2022-09-10T20:28:41.369Z,13.53
2022-09-10T20:31:10.946Z,13.80
2022-09-10T20:33:42.255Z,12.67
2022-09-10T20:36:12.223Z,14.00
2022-09-10T20:38:40.521Z,15.43
2022-09-10T20:41:08.827Z,14.73
2022-09-10T20:43:37.468Z,15.47
2022-09-10T20:46:06.437Z,16.73
2022-09-10T20:48:34.477Z,16.30
2022-09-10T20:51:03.677Z,16.80
2022-09-10T20:53:36.300Z,15.13
2022-09-10T20:56:06.569Z,15.97
2022-09-10T20:58:36.805Z,17.03
2022-09-10T21:01:09.606Z,15.37
2022-09-10T21:03:37.607Z,14.93
2022-09-10T21:06:07.407Z,15.70
2022-09-10T21:08:35.829Z,16.10
2022-09-10T21:11:04.869Z,14.53
2022-09-10T21:13:34.192Z,16.00
2022-09-10T21:16:10.380Z,15.17
2022-09-10T21:18:38.368Z,15.53
2022-09-10T21:21:08.691Z,16.33
2022-09-10T21:23:37.620Z,16.33
2022-09-10T21:26:05.975Z,17.13
2022-09-10T21:28:35.361Z,16.60
2022-09-10T21:31:04.983Z,16.83
2022-09-10T21:33:33.319Z,15.83
2022-09-10T21:36:02.528Z,15.80
2022-09-10T21:38:31.819Z,15.87
2022-09-10T21:41:00.015Z,23.07
2022-09-10T21:43:28.598Z,29.07
2022-09-10T21:45:56.427Z,23.03
2022-09-10T21:48:24.398Z,19.23
2022-09-10T21:50:59.033Z,17.60
2022-09-10T21:53:27.248Z,16.83
2022-09-10T21:55:57.278Z,16.43
2022-09-10T21:58:27.849Z,18.67
2022-09-10T22:00:58.190Z,18.03
2022-09-10T22:03:26.259Z,16.83
2022-09-10T22:05:54.069Z,15.50
2022-09-10T22:08:22.386Z,17.27
2022-09-10T22:10:51.371Z,16.43
2022-09-10T22:13:22.083Z,15.60
2022-09-10T22:15:52.227Z,17.23
2022-09-10T22:18:20.585Z,16.90
2022-09-10T22:20:48.377Z,18.10
2022-09-10T22:23:16.219Z,16.63
2022-09-10T22:25:44.057Z,16.23
2022-09-10T22:28:12.130Z,17.33
2022-09-10T22:30:42.302Z,18.30
2022-09-10T22:33:11.183Z,14.87
2022-09-10T22:35:39.402Z,17.37
2022-09-10T22:38:07.239Z,16.73
2022-09-10T22:40:35.087Z,17.33
2022-09-10T22:43:03.391Z,17.73
2022-09-10T22:45:32.355Z,17.60
2022-09-10T22:48:01.524Z,17.50
2022-09-10T22:50:29.375Z,16.43
2022-09-10T22:52:57.201Z,16.60
2022-09-10T22:55:25.031Z,16.43
2022-09-10T22:57:53.754Z,17.57
2022-09-10T23:00:22.146Z,17.67
2022-09-10T23:02:49.929Z,15.97
2022-09-10T23:05:19.391Z,15.13
2022-09-10T23:07:49.972Z,16.10
2022-09-10T23:10:18.083Z,16.23
2022-09-10T23:12:45.955Z,15.27
2022-09-10T23:15:13.853Z,15.73
2022-09-10T23:17:41.733Z,14.37
2022-09-10T23:20:12.204Z,14.23
2022-09-10T23:22:41.361Z,14.47
2022-09-10T23:25:10.113Z,15.30
2022-09-10T23:27:38.683Z,17.00
2022-09-10T23:30:07.795Z,15.90
2022-09-10T23:32:35.690Z,16.80
2022-09-10T23:35:08.263Z,15.47
2022-09-10T23:37:36.184Z,15.80
2022-09-10T23:40:06.336Z,15.23
2022-09-10T23:42:35.390Z,15.57
2022-09-10T23:45:03.254Z,15.37
2022-09-10T23:47:31.362Z,16.20
2022-09-10T23:49:59.222Z,16.80
2022-09-10T23:52:27.099Z,17.10
2022-09-10T23:54:55.890Z,16.47
2022-09-10T23:57:25.894Z,16.90
2022-09-10T23:59:53.743Z,15.13
